Time;durP1;ratioP1;P1;durP2;ratioP2;P2;SDS_P1;SDS_P2;PMS_P1;PMS_P2;Temp;Humidity;BMP_temperature;BMP_pressure;BME280_temperature;BME280_humidity;BME280_pressure;Samples;Min_cycle;Max_cycle;Signal;HPM_P1;HPM_P2
2023/07/31 00:00:36;;;;;;;8.82;2.80;;;16.60;99.90;;;;;;6159984;23;20100;-77
2023/07/31 00:03:01;;;;;;;7.85;2.85;;;16.60;99.90;;;;;;6159950;23;20020;-77
2023/07/31 00:05:27;;;;;;;8.63;3.10;;;16.60;99.90;;;;;;6159858;23;20088;-77
2023/07/31 00:07:54;;;;;;;9.95;3.08;;;16.60;99.90;;;;;;6159977;23;20063;-77
2023/07/31 00:10:20;;;;;;;11.65;3.10;;;16.60;99.90;;;;;;6159903;23;20051;-77
2023/07/31 00:12:46;;;;;;;11.23;3.60;;;16.60;99.90;;;;;;6186552;23;20017;-78
2023/07/31 00:15:13;;;;;;;9.63;2.92;;;16.60;99.90;;;;;;6159852;23;20338;-77
2023/07/31 00:17:38;;;;;;;10.32;2.88;;;16.60;99.90;;;;;;6159929;23;20017;-78
2023/07/31 00:20:04;;;;;;;9.15;3.15;;;16.60;99.90;;;;;;6159590;23;20096;-77
2023/07/31 00:22:30;;;;;;;12.48;3.40;;;16.60;99.90;;;;;;6159919;23;20071;-77
2023/07/31 00:24:57;;;;;;;12.65;2.80;;;16.50;99.90;;;;;;6159969;23;20389;-77
2023/07/31 00:27:22;;;;;;;13.32;2.70;;;16.50;99.90;;;;;;6159812;23;20063;-77
2023/07/31 00:29:48;;;;;;;6.95;2.88;;;16.50;99.90;;;;;;6159921;23;20045;-77
2023/07/31 00:32:13;;;;;;;7.80;2.55;;;16.60;99.90;;;;;;6159780;23;20072;-77
2023/07/31 00:34:39;;;;;;;10.88;3.05;;;16.50;99.90;;;;;;6159820;23;20016;-78
2023/07/31 00:37:05;;;;;;;5.85;2.63;;;16.50;99.90;;;;;;6159572;23;20104;-77
2023/07/31 00:39:31;;;;;;;10.40;3.13;;;16.50;99.90;;;;;;6159686;23;20105;-78
2023/07/31 00:41:56;;;;;;;7.70;2.45;;;16.50;99.90;;;;;;6159624;23;20496;-78
2023/07/31 00:44:22;;;;;;;9.18;2.67;;;16.50;99.90;;;;;;6159780;23;20472;-78
2023/07/31 00:46:48;;;;;;;6.45;2.47;;;16.60;99.90;;;;;;6159718;23;20017;-77
2023/07/31 00:49:14;;;;;;;8.27;3.10;;;16.50;99.90;;;;;;6159710;23;20052;-78
2023/07/31 00:51:40;;;;;;;10.57;2.55;;;16.50;99.90;;;;;;6186217;23;20045;-78
2023/07/31 00:54:06;;;;;;;9.23;3.30;;;16.60;99.90;;;;;;6159548;23;20083;-78
2023/07/31 00:56:32;;;;;;;11.52;2.80;;;16.50;99.90;;;;;;6159688;23;20512;-78
2023/07/31 00:58:58;;;;;;;8.00;2.20;;;16.50;99.90;;;;;;6186230;23;20017;-77
2023/07/31 01:01:24;;;;;;;8.95;2.50;;;16.60;99.90;;;;;;6159554;23;20021;-78
2023/07/31 01:03:55;;;;;;;11.52;3.00;;;16.50;99.90;;;;;;6159348;23;20021;-77
2023/07/31 01:06:40;;;;;;;9.68;2.78;;;16.60;99.90;;;;;;6186187;23;20021;-78
2023/07/31 01:09:18;;;;;;;8.52;2.80;;;16.60;99.90;;;;;;6186244;23;20014;-77
2023/07/31 01:11:51;;;;;;;7.45;2.53;;;16.50;99.90;;;;;;6159586;23;20519;-78
2023/07/31 01:14:17;;;;;;;7.72;2.20;;;16.60;99.90;;;;;;6159544;23;20017;-79
2023/07/31 01:16:43;;;;;;;8.88;2.67;;;16.50;99.90;;;;;;6159597;23;20425;-78
2023/07/31 01:19:10;;;;;;;10.88;3.10;;;16.50;99.90;;;;;;6185954;23;20336;-77
2023/07/31 01:21:35;;;;;;;10.40;2.67;;;16.60;99.90;;;;;;6159698;23;20017;-77
2023/07/31 01:24:21;;;;;;;12.50;3.08;;;16.60;99.90;;;;;;6159588;23;20067;-77
2023/07/31 01:26:57;;;;;;;8.68;2.58;;;16.50;99.90;;;;;;6186154;23;20021;-77
2023/07/31 01:29:56;;;;;;;10.82;2.53;;;16.50;99.90;;;;;;6159503;23;20028;-77
2023/07/31 01:32:24;;;;;;;4.13;2.15;;;16.50;99.90;;;;;;6170707;23;20133;-77
2023/07/31 01:34:51;;;;;;;7.55;2.67;;;16.50;99.90;;;;;;6161375;23;20013;-77
2023/07/31 01:37:16;;;;;;;8.63;2.28;;;16.50;99.90;;;;;;6161326;23;20013;-78
2023/07/31 01:39:42;;;;;;;9.27;2.08;;;16.50;99.90;;;;;;6187680;23;20013;-78
2023/07/31 01:42:07;;;;;;;7.75;2.30;;;16.50;99.90;;;;;;6161284;23;20025;-78
2023/07/31 01:44:33;;;;;;;8.23;2.08;;;16.50;99.90;;;;;;6161354;23;20017;-78
2023/07/31 01:47:00;;;;;;;9.98;2.25;;;16.50;99.90;;;;;;6187560;23;20024;-78
2023/07/31 01:49:25;;;;;;;7.13;2.30;;;16.50;99.90;;;;;;6161329;23;20024;-78
2023/07/31 01:51:51;;;;;;;5.50;2.60;;;16.60;99.90;;;;;;6188049;23;20013;-78
2023/07/31 01:54:17;;;;;;;8.82;2.20;;;16.50;99.90;;;;;;6161171;23;20017;-78
2023/07/31 01:56:42;;;;;;;7.07;2.00;;;16.50;99.90;;;;;;6161215;23;20079;-78
2023/07/31 01:59:08;;;;;;;8.10;2.20;;;16.50;99.90;;;;;;6187935;23;20013;-79
2023/07/31 02:01:33;;;;;;;7.18;2.20;;;16.50;99.90;;;;;;6187331;23;20017;-78
2023/07/31 02:04:01;;;;;;;6.43;2.20;;;16.50;99.90;;;;;;6160824;23;20021;-78
2023/07/31 02:06:27;;;;;;;8.90;2.25;;;16.40;99.90;;;;;;6187774;23;20021;-78
2023/07/31 02:08:52;;;;;;;6.50;2.15;;;16.40;99.90;;;;;;6187658;23;20092;-78
2023/07/31 02:11:18;;;;;;;9.70;2.08;;;16.40;99.90;;;;;;6161095;23;20107;-78
2023/07/31 02:13:44;;;;;;;7.78;2.20;;;16.40;99.90;;;;;;6161023;23;20072;-78
2023/07/31 02:16:09;;;;;;;6.78;2.03;;;16.30;99.90;;;;;;6161054;23;20024;-77
2023/07/31 02:18:35;;;;;;;10.75;2.00;;;16.40;99.90;;;;;;6161029;23;20013;-78
2023/07/31 02:21:00;;;;;;;6.80;2.30;;;16.30;99.90;;;;;;6160854;23;20028;-78
2023/07/31 02:23:26;;;;;;;8.00;2.58;;;16.30;99.90;;;;;;6160931;23;20341;-78
2023/07/31 02:25:52;;;;;;;9.30;2.83;;;16.40;99.90;;;;;;6161305;23;20434;-78
2023/07/31 02:28:17;;;;;;;8.73;2.20;;;16.30;99.90;;;;;;6187512;23;20025;-78
2023/07/31 02:30:46;;;;;;;8.95;2.05;;;16.30;99.90;;;;;;6160918;23;20422;-78
2023/07/31 02:33:12;;;;;;;9.05;2.10;;;16.20;99.90;;;;;;6160777;23;20029;-78
2023/07/31 02:35:37;;;;;;;6.65;2.33;;;16.30;99.90;;;;;;6160912;23;20350;-78
2023/07/31 02:38:03;;;;;;;7.05;2.08;;;16.30;99.90;;;;;;6160788;23;20373;-78
2023/07/31 02:40:29;;;;;;;9.88;2.28;;;16.30;99.90;;;;;;6160823;23;20434;-78
2023/07/31 02:42:54;;;;;;;7.53;1.90;;;16.30;99.90;;;;;;6160783;23;20017;-78
2023/07/31 02:45:20;;;;;;;10.70;2.50;;;16.20;99.90;;;;;;6187455;23;20025;-78
2023/07/31 02:47:45;;;;;;;6.38;2.00;;;16.20;99.90;;;;;;6187071;23;20017;-78
2023/07/31 02:50:11;;;;;;;10.70;2.55;;;16.30;99.90;;;;;;6160728;23;20025;-77
2023/07/31 02:52:36;;;;;;;6.65;2.42;;;16.30;99.90;;;;;;6160688;23;20017;-78
2023/07/31 02:55:02;;;;;;;10.73;3.00;;;16.20;99.90;;;;;;6160765;23;20386;-78
2023/07/31 02:57:28;;;;;;;7.60;2.33;;;16.20;99.90;;;;;;6160665;23;20418;-78
2023/07/31 02:59:53;;;;;;;11.70;2.50;;;16.10;99.90;;;;;;6186925;23;20341;-78
2023/07/31 03:02:19;;;;;;;9.32;2.35;;;16.20;99.90;;;;;;6160564;23;20071;-78
2023/07/31 03:04:45;;;;;;;9.88;1.98;;;16.10;99.90;;;;;;6160378;23;20017;-78
2023/07/31 03:07:11;;;;;;;7.30;2.30;;;16.10;99.90;;;;;;6160382;23;20028;-78
2023/07/31 03:09:36;;;;;;;7.50;1.90;;;16.10;99.90;;;;;;6160548;23;20052;-78
2023/07/31 03:12:05;;;;;;;8.20;1.88;;;16.10;99.90;;;;;;6160417;23;20025;-78
2023/07/31 03:14:31;;;;;;;4.40;1.83;;;16.00;99.90;;;;;;6186832;23;20349;-78
2023/07/31 03:16:56;;;;;;;5.07;1.75;;;16.00;99.90;;;;;;6186803;23;20445;-78
2023/07/31 03:19:22;;;;;;;3.95;2.00;;;16.00;99.90;;;;;;6160496;23;20024;-78
2023/07/31 03:21:48;;;;;;;5.18;1.80;;;16.00;99.90;;;;;;6160334;23;20029;-78
2023/07/31 03:24:13;;;;;;;6.70;2.10;;;16.00;99.90;;;;;;6160382;23;20461;-78
2023/07/31 03:26:41;;;;;;;5.55;1.83;;;15.90;99.90;;;;;;6160391;23;20473;-78
2023/07/31 03:29:07;;;;;;;5.22;1.95;;;15.90;99.90;;;;;;6187020;23;20040;-78
2023/07/31 03:31:33;;;;;;;4.57;2.03;;;16.00;99.90;;;;;;6186848;23;20450;-78
2023/07/31 03:33:58;;;;;;;7.63;2.30;;;16.00;99.90;;;;;;6160314;23;20025;-78
2023/07/31 03:36:24;;;;;;;4.25;1.83;;;15.90;99.90;;;;;;6160577;23;20020;-78
2023/07/31 03:38:51;;;;;;;6.43;1.85;;;15.90;99.90;;;;;;6160307;23;20052;-78
2023/07/31 03:41:17;;;;;;;4.28;1.73;;;15.90;99.90;;;;;;6186822;23;20097;-78
2023/07/31 03:43:42;;;;;;;6.30;1.95;;;15.90;99.90;;;;;;6186530;23;20021;-78
2023/07/31 03:46:08;;;;;;;7.35;1.80;;;16.00;99.90;;;;;;6160175;23;20116;-78
2023/07/31 03:48:34;;;;;;;7.47;1.60;;;16.00;99.90;;;;;;6186819;23;20017;-77
2023/07/31 03:50:59;;;;;;;4.40;1.80;;;16.00;99.90;;;;;;6160087;23;20323;-77
2023/07/31 03:53:25;;;;;;;4.57;1.10;;;15.80;99.90;;;;;;6160087;23;20017;-78
2023/07/31 03:55:50;;;;;;;4.15;1.85;;;15.90;99.90;;;;;;6186201;23;20079;-78
2023/07/31 03:58:16;;;;;;;5.63;1.95;;;15.80;99.90;;;;;;6160117;23;20013;-77
2023/07/31 04:00:42;;;;;;;4.18;1.40;;;15.80;99.90;;;;;;6160100;23;20468;-77
2023/07/31 04:03:07;;;;;;;5.72;1.77;;;15.80;99.90;;;;;;6160009;23;20017;-77
2023/07/31 04:05:33;;;;;;;4.68;1.75;;;15.90;99.90;;;;;;6186128;23;20024;-77
2023/07/31 04:07:59;;;;;;;4.03;1.60;;;15.80;99.90;;;;;;6159932;23;20354;-77
2023/07/31 04:10:24;;;;;;;5.90;1.70;;;15.90;99.90;;;;;;6159999;23;20097;-77
2023/07/31 04:12:50;;;;;;;4.93;1.80;;;15.90;99.90;;;;;;6159999;23;20092;-77
2023/07/31 04:15:16;;;;;;;5.90;1.88;;;15.90;99.90;;;;;;6159930;23;20057;-78
2023/07/31 04:17:42;;;;;;;6.32;1.80;;;15.90;99.90;;;;;;6159919;23;20359;-77
2023/07/31 04:20:08;;;;;;;3.63;1.30;;;16.00;99.90;;;;;;6186058;23;20027;-77
2023/07/31 04:22:33;;;;;;;2.55;1.13;;;15.90;99.90;;;;;;6159679;23;20021;-77
2023/07/31 04:24:59;;;;;;;5.38;1.50;;;15.90;99.90;;;;;;6159805;23;20055;-77
2023/07/31 04:27:25;;;;;;;4.50;1.63;;;15.80;99.90;;;;;;6159799;23;20021;-78
2023/07/31 04:29:53;;;;;;;3.03;1.20;;;15.90;99.90;;;;;;6159707;23;20088;-77
2023/07/31 04:32:20;;;;;;;3.58;1.27;;;15.90;99.90;;;;;;6159722;23;20020;-78
2023/07/31 04:34:48;;;;;;;6.72;1.40;;;15.80;99.90;;;;;;6160415;23;20137;-77
2023/07/31 04:37:17;;;;;;;5.53;1.33;;;15.90;99.90;;;;;;6159688;23;20446;-78
2023/07/31 04:39:42;;;;;;;4.95;1.63;;;15.90;99.90;;;;;;6159712;23;20096;-77
2023/07/31 04:42:08;;;;;;;3.22;1.30;;;15.90;99.90;;;;;;6159491;23;20056;-77
2023/07/31 04:44:34;;;;;;;3.00;1.17;;;15.80;99.90;;;;;;6159632;23;20017;-77
2023/07/31 04:46:59;;;;;;;2.67;1.20;;;15.80;99.90;;;;;;6159572;23;20023;-77
2023/07/31 04:49:25;;;;;;;4.10;1.20;;;15.90;99.90;;;;;;6159617;23;20028;-77
2023/07/31 04:51:50;;;;;;;3.95;1.20;;;15.90;99.90;;;;;;6159652;23;20035;-77
2023/07/31 04:54:17;;;;;;;2.30;1.10;;;15.90;99.90;;;;;;6159571;23;20051;-77
2023/07/31 04:56:42;;;;;;;2.15;1.17;;;15.90;99.90;;;;;;6185952;23;20100;-77
2023/07/31 04:59:08;;;;;;;2.08;1.08;;;15.90;99.90;;;;;;6159527;23;20071;-77
2023/07/31 05:01:33;;;;;;;2.78;1.02;;;15.90;99.90;;;;;;6159402;23;20398;-77
2023/07/31 05:04:02;;;;;;;2.65;0.93;;;15.80;99.90;;;;;;6185638;23;20021;-77
2023/07/31 05:06:28;;;;;;;1.42;0.70;;;15.80;99.90;;;;;;6159747;23;20380;-77
2023/07/31 05:08:53;;;;;;;1.90;0.77;;;15.80;99.90;;;;;;6161631;23;20107;-77
2023/07/31 05:11:19;;;;;;;1.83;0.70;;;15.90;99.90;;;;;;6161538;23;20024;-76
2023/07/31 05:13:44;;;;;;;1.30;0.65;;;15.80;99.90;;;;;;6161589;23;20068;-77
2023/07/31 05:16:10;;;;;;;2.17;0.85;;;15.90;99.90;;;;;;6161482;23;20124;-77
2023/07/31 05:18:36;;;;;;;2.03;0.70;;;15.80;99.90;;;;;;6161464;23;20019;-77
2023/07/31 05:21:01;;;;;;;3.53;0.80;;;15.80;99.90;;;;;;6161357;23;20031;-77
2023/07/31 05:23:27;;;;;;;1.75;0.60;;;15.90;99.90;;;;;;6161528;23;20047;-77
2023/07/31 05:25:53;;;;;;;3.03;0.80;;;15.90;99.90;;;;;;6161694;23;20017;-77
2023/07/31 05:28:18;;;;;;;1.27;0.50;;;15.80;99.90;;;;;;6161453;23;20450;-77
2023/07/31 05:30:44;;;;;;;1.55;0.90;;;15.80;99.90;;;;;;6161596;23;20092;-77
2023/07/31 05:33:10;;;;;;;2.55;0.65;;;15.80;99.90;;;;;;6161489;23;20104;-77
2023/07/31 05:35:35;;;;;;;1.85;0.55;;;15.90;99.90;;;;;;6161766;23;20021;-77
2023/07/31 05:38:01;;;;;;;1.90;0.85;;;15.90;99.90;;;;;;6161445;23;20024;-77
2023/07/31 05:40:27;;;;;;;2.28;0.90;;;15.90;99.90;;;;;;6188089;23;20017;-77
2023/07/31 05:42:52;;;;;;;3.53;1.13;;;15.90;99.90;;;;;;6161171;23;20016;-77
2023/07/31 05:45:18;;;;;;;2.85;0.90;;;15.90;99.90;;;;;;6161208;23;20121;-77
2023/07/31 05:47:43;;;;;;;3.13;1.00;;;15.90;99.90;;;;;;6161193;23;20048;-77
2023/07/31 05:50:09;;;;;;;3.20;1.10;;;15.90;99.90;;;;;;6161183;23;20013;-77
2023/07/31 05:52:35;;;;;;;3.03;0.80;;;15.90;99.90;;;;;;6161252;23;20096;-77
2023/07/31 05:55:01;;;;;;;1.70;0.80;;;16.00;99.90;;;;;;6161137;23;20246;-77
2023/07/31 05:57:27;;;;;;;2.85;0.68;;;15.90;99.90;;;;;;6187786;23;20092;-77
2023/07/31 05:59:53;;;;;;;4.82;0.98;;;16.00;99.90;;;;;;6160981;23;20052;-77
2023/07/31 06:02:21;;;;;;;2.85;0.98;;;16.10;99.90;;;;;;6187857;23;20021;-77
2023/07/31 06:04:48;;;;;;;3.60;1.67;;;16.10;99.90;;;;;;6160723;23;20032;-77
2023/07/31 06:07:14;;;;;;;3.40;1.20;;;16.10;99.90;;;;;;6187637;23;20056;-77
2023/07/31 06:09:39;;;;;;;4.28;1.33;;;16.10;99.90;;;;;;6160995;23;20028;-76
2023/07/31 06:12:05;;;;;;;3.78;1.38;;;16.20;99.90;;;;;;6161112;23;20056;-77
2023/07/31 06:14:31;;;;;;;3.33;1.35;;;16.20;99.90;;;;;;6187522;23;20156;-76
2023/07/31 06:16:56;;;;;;;2.15;0.93;;;16.20;99.90;;;;;;6186473;23;20024;-74
2023/07/31 06:19:22;;;;;;;3.03;0.95;;;16.20;99.90;;;;;;6160679;23;20013;-75
2023/07/31 06:21:48;;;;;;;2.47;1.27;;;16.30;99.90;;;;;;6187205;23;20020;-74
2023/07/31 06:24:18;;;;;;;2.28;0.95;;;16.30;99.90;;;;;;6160622;23;20016;-75
2023/07/31 06:26:44;;;;;;;3.28;1.00;;;16.20;99.90;;;;;;6160734;23;20322;-75
2023/07/31 06:29:10;;;;;;;3.65;0.93;;;16.30;99.90;;;;;;6160417;23;20467;-75
2023/07/31 06:31:35;;;;;;;3.08;1.13;;;16.20;99.90;;;;;;6160628;23;20017;-74
2023/07/31 06:34:01;;;;;;;2.38;0.80;;;16.20;99.90;;;;;;6160501;23;20025;-74
2023/07/31 06:36:27;;;;;;;1.98;1.02;;;16.20;99.90;;;;;;6160607;23;20084;-75
2023/07/31 06:38:52;;;;;;;2.13;1.00;;;16.30;99.90;;;;;;6160475;23;20025;-74
2023/07/31 06:41:20;;;;;;;2.83;0.82;;;16.30;99.90;;;;;;6160449;23;20021;-75
2023/07/31 06:43:45;;;;;;;2.17;0.75;;;16.30;99.90;;;;;;6160317;23;20017;-74
2023/07/31 06:46:11;;;;;;;2.28;0.85;;;16.30;99.90;;;;;;6160445;23;20095;-74
2023/07/31 06:48:39;;;;;;;5.18;1.27;;;16.30;99.90;;;;;;6160325;23;20040;-75
2023/07/31 06:51:05;;;;;;;7.50;1.52;;;16.40;99.90;;;;;;6160523;23;20446;-75
2023/07/31 06:53:30;;;;;;;4.57;1.30;;;16.40;99.90;;;;;;6160408;23;20016;-76
2023/07/31 06:55:56;;;;;;;6.43;1.60;;;16.40;99.90;;;;;;6160436;23;20017;-74
2023/07/31 06:58:22;;;;;;;5.88;1.88;;;16.50;99.90;;;;;;6160285;23;20028;-74
2023/07/31 07:00:49;;;;;;;5.72;2.35;;;16.50;99.90;;;;;;6160304;23;20392;-74
2023/07/31 07:03:16;;;;;;;8.95;2.58;;;16.50;99.90;;;;;;6160190;23;20017;-74
2023/07/31 07:05:41;;;;;;;8.55;2.85;;;16.60;99.90;;;;;;6160062;23;20024;-75
2023/07/31 07:08:07;;;;;;;7.82;3.00;;;16.50;99.90;;;;;;6160353;23;20017;-75
2023/07/31 07:10:33;;;;;;;9.18;3.13;;;16.60;99.90;;;;;;6160149;23;20071;-75
2023/07/31 07:12:58;;;;;;;9.18;2.80;;;16.60;99.90;;;;;;6186491;23;20025;-75
2023/07/31 07:15:25;;;;;;;9.45;2.70;;;16.70;99.90;;;;;;6186051;23;20009;-74
2023/07/31 07:17:50;;;;;;;8.43;2.40;;;16.80;99.90;;;;;;6159630;23;20084;-75
2023/07/31 07:20:16;;;;;;;6.15;1.95;;;16.80;99.90;;;;;;6159744;23;20017;-75
2023/07/31 07:22:43;;;;;;;6.32;1.65;;;16.60;99.90;;;;;;6159606;23;20036;-75
2023/07/31 07:25:09;;;;;;;5.57;1.70;;;16.70;99.90;;;;;;6159911;23;20017;-75
2023/07/31 07:27:34;;;;;;;4.60;0.90;;;16.80;99.90;;;;;;6159911;23;20341;-74
2023/07/31 07:30:00;;;;;;;4.05;1.10;;;16.70;99.90;;;;;;6159131;23;20088;-75
2023/07/31 07:32:26;;;;;;;3.05;0.93;;;16.70;99.90;;;;;;6159612;23;20017;-75
2023/07/31 07:34:52;;;;;;;3.78;1.20;;;16.80;99.90;;;;;;6159910;23;20434;-76
2023/07/31 07:37:17;;;;;;;3.33;0.70;;;16.80;99.90;;;;;;6160016;23;20028;-75
2023/07/31 07:39:43;;;;;;;2.70;0.95;;;16.80;99.90;;;;;;6159982;23;20040;-76
2023/07/31 07:42:09;;;;;;;3.58;0.70;;;16.70;99.90;;;;;;6159297;23;20025;-76
2023/07/31 07:44:34;;;;;;;1.17;0.40;;;16.80;99.90;;;;;;6159530;23;20041;-75
2023/07/31 07:47:00;;;;;;;2.15;0.30;;;16.80;99.90;;;;;;6159727;23;20020;-76
2023/07/31 07:49:26;;;;;;;2.55;0.20;;;16.90;99.90;;;;;;6159953;23;20023;-76
2023/07/31 07:51:51;;;;;;;1.23;0.30;;;16.80;99.90;;;;;;6159332;23;20441;-76
2023/07/31 07:54:17;;;;;;;1.50;0.40;;;17.00;99.90;;;;;;6159753;23;20350;-76
2023/07/31 07:56:43;;;;;;;1.15;0.50;;;17.00;99.90;;;;;;6159265;23;20040;-76
2023/07/31 07:59:08;;;;;;;2.15;0.80;;;17.00;99.90;;;;;;6159373;23;20021;-76
2023/07/31 08:01:34;;;;;;;2.78;0.70;;;16.90;99.90;;;;;;6185814;23;20024;-75
2023/07/31 08:04:01;;;;;;;3.28;1.30;;;17.00;99.90;;;;;;6159651;23;20084;-76
2023/07/31 08:06:29;;;;;;;4.60;1.52;;;17.00;99.90;;;;;;6159514;23;20060;-76
2023/07/31 08:08:55;;;;;;;5.65;1.42;;;17.10;99.90;;;;;;6159172;23;20013;-76
2023/07/31 08:11:22;;;;;;;5.25;1.90;;;17.10;99.90;;;;;;6158999;23;20461;-76
2023/07/31 08:13:48;;;;;;;4.97;2.08;;;17.10;99.90;;;;;;6159617;23;20017;-75
2023/07/31 08:16:16;;;;;;;7.70;1.90;;;17.00;99.90;;;;;;6156323;23;20017;-75
2023/07/31 08:18:42;;;;;;;4.80;2.03;;;17.10;99.90;;;;;;6159552;23;20035;-75
2023/07/31 08:21:08;;;;;;;3.20;1.50;;;17.10;99.90;;;;;;6185474;23;20016;-75
2023/07/31 08:23:34;;;;;;;4.85;1.45;;;17.30;99.90;;;;;;6159847;23;20021;-75
2023/07/31 08:25:59;;;;;;;5.75;1.60;;;17.30;99.90;;;;;;6158901;23;20346;-75
2023/07/31 08:28:25;;;;;;;5.75;1.38;;;17.20;99.90;;;;;;6159114;23;20060;-75
2023/07/31 08:30:51;;;;;;;4.10;1.52;;;17.40;99.90;;;;;;6159044;23;20024;-75
2023/07/31 08:33:17;;;;;;;3.08;1.17;;;17.40;99.90;;;;;;6159195;23;20468;-75
2023/07/31 08:35:42;;;;;;;3.65;1.20;;;17.30;99.90;;;;;;6159490;23;20024;-75
2023/07/31 08:38:08;;;;;;;3.08;1.08;;;17.50;99.90;;;;;;6158997;23;20113;-75
2023/07/31 08:40:38;;;;;;;2.05;0.90;;;17.40;99.90;;;;;;6185873;23;20021;-76
2023/07/31 08:43:04;;;;;;;3.25;0.80;;;17.60;99.90;;;;;;6158864;23;20017;-75
2023/07/31 08:45:30;;;;;;;2.95;0.90;;;17.70;99.90;;;;;;6159001;23;20450;-76
2023/07/31 08:47:57;;;;;;;2.55;0.90;;;17.80;99.90;;;;;;6185534;23;20063;-77
2023/07/31 08:50:23;;;;;;;1.55;0.68;;;17.90;99.90;;;;;;6159015;23;20464;-76
2023/07/31 08:52:50;;;;;;;3.17;0.70;;;18.10;99.90;;;;;;6159202;23;20021;-76
2023/07/31 08:55:16;;;;;;;3.00;0.82;;;18.20;99.90;;;;;;6158998;23;20039;-75
2023/07/31 08:57:43;;;;;;;3.05;0.70;;;18.10;99.90;;;;;;6158899;23;20020;-75
2023/07/31 09:00:10;;;;;;;3.17;1.05;;;18.00;99.90;;;;;;6159368;23;20059;-75
2023/07/31 09:02:51;;;;;;;3.17;0.80;;;18.10;99.90;;;;;;6158780;23;20024;-75
2023/07/31 09:05:18;;;;;;;2.80;1.02;;;18.00;99.90;;;;;;6185066;23;20144;-76
2023/07/31 09:07:49;;;;;;;5.38;0.95;;;17.90;99.90;;;;;;6158151;23;20437;-76
2023/07/31 09:10:15;;;;;;;4.70;0.80;;;18.00;99.90;;;;;;6183630;23;20346;-76
2023/07/31 09:12:42;;;;;;;4.45;0.85;;;18.10;99.90;;;;;;6159237;23;20517;-77
2023/07/31 09:15:08;;;;;;;7.18;1.20;;;18.20;99.90;;;;;;6158824;23;20056;-76
2023/07/31 09:17:36;;;;;;;6.47;1.70;;;18.20;99.90;;;;;;6158834;23;20016;-75
2023/07/31 09:20:21;;;;;;;5.88;1.73;;;18.10;99.90;;;;;;6158854;23;20441;-75
2023/07/31 09:22:48;;;;;;;6.15;1.75;;;18.00;99.90;;;;;;6158788;23;20017;-76
2023/07/31 09:25:19;;;;;;;7.43;1.88;;;18.00;99.90;;;;;;6158664;23;20017;-76
2023/07/31 09:27:53;;;;;;;7.25;1.67;;;18.10;99.90;;;;;;6158838;23;20453;-75
2023/07/31 09:30:19;;;;;;;5.88;1.60;;;18.10;99.90;;;;;;6185472;23;20519;-77
2023/07/31 09:32:45;;;;;;;7.43;1.77;;;18.20;99.90;;;;;;6158558;23;20080;-76
2023/07/31 09:35:20;;;;;;;9.75;1.88;;;18.10;99.90;;;;;;6158651;23;20017;-76
2023/07/31 09:37:51;;;;;;;7.05;1.90;;;18.00;99.90;;;;;;6158989;23;20346;-76
2023/07/31 09:40:27;;;;;;;8.88;1.88;;;18.00;99.90;;;;;;6158928;23;20025;-76
2023/07/31 09:42:57;;;;;;;6.88;1.90;;;18.00;99.90;;;;;;6158286;23;20024;-75
2023/07/31 09:45:23;;;;;;;9.65;2.45;;;18.20;99.90;;;;;;6158875;23;20017;-77
2023/07/31 09:47:49;;;;;;;9.30;2.45;;;18.30;99.90;;;;;;6158979;23;20434;-76
2023/07/31 09:50:16;;;;;;;8.02;2.42;;;18.30;99.90;;;;;;6185158;23;20013;-77
2023/07/31 09:52:41;;;;;;;8.77;2.47;;;18.30;99.90;;;;;;6158888;23;20393;-75
2023/07/31 09:55:08;;;;;;;8.88;2.70;;;18.30;99.90;;;;;;6160856;23;20017;-75
2023/07/31 09:57:36;;;;;;;7.70;2.58;;;18.30;99.90;;;;;;6160790;23;20450;-74
2023/07/31 10:00:02;;;;;;;8.65;2.70;;;18.30;99.90;;;;;;6187188;23;20461;-75
2023/07/31 10:02:29;;;;;;;7.25;2.75;;;18.20;99.90;;;;;;6160699;23;20020;-75
2023/07/31 10:05:00;;;;;;;7.38;2.38;;;18.30;99.90;;;;;;6160222;23;20338;-74
2023/07/31 10:07:28;;;;;;;9.30;2.40;;;18.40;99.90;;;;;;6160920;23;20025;-77
2023/07/31 10:09:57;;;;;;;8.85;2.63;;;18.30;99.90;;;;;;6160619;23;20441;-77
2023/07/31 10:12:28;;;;;;;9.50;2.92;;;18.30;99.90;;;;;;6160766;23;20461;-76
2023/07/31 10:14:55;;;;;;;6.50;2.25;;;18.20;99.90;;;;;;6160406;23;20380;-75
2023/07/31 10:17:25;;;;;;;7.03;2.35;;;18.20;99.90;;;;;;6186956;23;20445;-75
2023/07/31 10:19:52;;;;;;;5.75;2.08;;;18.30;99.90;;;;;;6160188;23;20075;-76
2023/07/31 10:22:24;;;;;;;5.82;1.85;;;18.40;99.90;;;;;;6187266;23;20017;-77
2023/07/31 10:24:52;;;;;;;7.30;2.10;;;18.40;99.90;;;;;;6186832;23;20333;-75
2023/07/31 10:27:17;;;;;;;6.07;2.30;;;18.60;99.90;;;;;;6160591;23;20405;-76
2023/07/31 10:29:46;;;;;;;5.20;2.20;;;18.60;99.90;;;;;;6160727;23;20017;-74
2023/07/31 10:32:14;;;;;;;5.57;2.20;;;18.60;99.90;;;;;;6186822;23;20021;-74
2023/07/31 10:34:41;;;;;;;9.18;2.35;;;18.50;99.90;;;;;;6160123;23;20017;-75
2023/07/31 10:37:29;;;;;;;5.97;2.25;;;18.70;99.90;;;;;;6186603;23;20024;-76
2023/07/31 10:39:58;;;;;;;4.93;1.90;;;18.60;99.90;;;;;;6160500;23;20021;-74
2023/07/31 10:42:38;;;;;;;5.18;2.15;;;18.70;99.90;;;;;;6160541;23;20083;-75
2023/07/31 10:45:11;;;;;;;6.50;1.98;;;18.70;99.90;;;;;;6160760;23;20055;-75
2023/07/31 10:47:46;;;;;;;6.63;2.10;;;18.70;99.90;;;;;;6186848;23;20079;-76
2023/07/31 10:50:23;;;;;;;6.28;2.30;;;18.90;99.90;;;;;;6160535;23;20013;-76
2023/07/31 10:52:51;;;;;;;5.93;2.13;;;19.10;99.90;;;;;;6160321;23;20055;-75
2023/07/31 10:55:52;;;;;;;9.02;2.05;;;19.20;99.90;;;;;;6160366;23;20048;-74
2023/07/31 10:58:22;;;;;;;6.57;1.77;;;19.20;99.90;;;;;;6099087;23;20365;-75
2023/07/31 11:00:48;;;;;;;5.13;1.80;;;19.10;99.90;;;;;;6160238;23;20076;-76
2023/07/31 11:03:21;;;;;;;9.70;2.28;;;19.10;99.90;;;;;;6160220;23;20021;-76
2023/07/31 11:06:32;;;;;;;5.00;1.40;;;19.10;99.90;;;;;;6186534;23;20024;-76
2023/07/31 11:09:31;;;;;;;5.55;1.55;;;19.00;99.90;;;;;;6186796;23;20043;-78
2023/07/31 11:11:57;;;;;;;3.50;1.27;;;19.10;99.90;;;;;;6160031;23;20318;-76
2023/07/31 11:14:23;;;;;;;5.72;1.55;;;19.00;99.90;;;;;;6160126;23;20020;-76
2023/07/31 11:16:52;;;;;;;3.58;1.30;;;18.90;99.90;;;;;;6160132;23;20021;-76
2023/07/31 11:19:47;;;;;;;6.25;1.73;;;19.00;99.90;;;;;;6186440;23;20016;-76
2023/07/31 11:22:17;;;;;;;4.70;1.52;;;19.10;99.90;;;;;;6159766;23;20017;-77
2023/07/31 11:24:43;;;;;;;3.97;1.20;;;19.30;99.90;;;;;;6159993;23;20027;-77
2023/07/31 11:27:09;;;;;;;3.83;1.05;;;19.40;99.90;;;;;;6160045;23;20025;-76
2023/07/31 11:29:35;;;;;;;2.25;1.00;;;19.30;99.90;;;;;;6160023;23;20031;-75
2023/07/31 11:32:00;;;;;;;6.20;1.27;;;19.20;99.90;;;;;;6160074;23;20441;-76
2023/07/31 11:34:26;;;;;;;3.25;1.17;;;19.30;99.90;;;;;;6159928;23;20017;-76
2023/07/31 11:36:58;;;;;;;2.50;0.90;;;19.30;99.90;;;;;;6159780;23;20046;-75
2023/07/31 11:39:24;;;;;;;4.70;1.45;;;19.20;99.90;;;;;;6186305;23;20124;-75
2023/07/31 11:41:50;;;;;;;4.85;1.40;;;19.20;99.90;;;;;;6186001;23;20433;-75
2023/07/31 11:44:15;;;;;;;2.33;1.10;;;19.10;99.90;;;;;;6159772;23;20024;-76
2023/07/31 11:46:42;;;;;;;5.80;1.58;;;19.30;99.90;;;;;;6159949;23;20036;-76
2023/07/31 11:49:08;;;;;;;4.50;1.17;;;19.40;99.90;;;;;;6159833;23;20501;-76
2023/07/31 11:51:39;;;;;;;5.75;1.40;;;19.50;99.90;;;;;;6159823;23;20357;-77
2023/07/31 11:54:08;;;;;;;2.88;1.33;;;19.50;99.90;;;;;;6159675;23;20377;-76
2023/07/31 11:56:33;;;;;;;5.43;1.30;;;19.50;99.90;;;;;;6159709;23;20147;-77
2023/07/31 11:59:02;;;;;;;4.43;1.65;;;19.50;99.90;;;;;;6185990;23;20060;-77
2023/07/31 12:01:28;;;;;;;4.90;1.77;;;19.50;99.90;;;;;;6159586;23;20056;-76
2023/07/31 12:03:54;;;;;;;4.43;1.60;;;19.50;99.90;;;;;;6159546;23;20083;-76
2023/07/31 12:06:22;;;;;;;7.90;2.13;;;19.40;99.90;;;;;;6185769;23;20031;-77
2023/07/31 12:08:48;;;;;;;4.82;1.88;;;19.50;99.90;;;;;;6159436;23;20047;-77
2023/07/31 12:11:14;;;;;;;7.32;2.33;;;19.40;99.90;;;;;;6159493;23;20032;-77
2023/07/31 12:13:40;;;;;;;5.63;1.73;;;19.40;99.90;;;;;;6186306;23;20017;-76
2023/07/31 12:16:06;;;;;;;5.00;1.58;;;19.40;99.90;;;;;;6159439;23;20013;-77
2023/07/31 12:18:37;;;;;;;6.05;2.00;;;19.30;99.90;;;;;;6159441;23;20524;-76
2023/07/31 12:21:05;;;;;;;5.97;2.20;;;19.30;99.90;;;;;;6159423;23;20484;-76
2023/07/31 12:23:33;;;;;;;7.00;2.00;;;19.20;99.90;;;;;;6159573;23;20025;-76
2023/07/31 12:26:07;;;;;;;4.20;1.25;;;19.20;99.90;;;;;;6159890;23;20036;-78
2023/07/31 12:28:49;;;;;;;3.05;1.65;;;19.20;99.90;;;;;;6159590;23;20091;-78
2023/07/31 12:31:20;;;;;;;4.18;1.67;;;19.10;99.90;;;;;;6158896;23;20009;-76
2023/07/31 12:33:52;;;;;;;2.70;1.30;;;19.20;99.90;;;;;;6185662;23;20020;-77
2023/07/31 12:36:23;;;;;;;4.00;1.60;;;19.40;99.90;;;;;;6159053;23;20099;-76
2023/07/31 12:38:50;;;;;;;2.15;1.42;;;19.50;99.90;;;;;;6159139;23;20444;-76
2023/07/31 12:41:16;;;;;;;2.83;1.30;;;19.50;99.90;;;;;;6159294;23;20445;-76
2023/07/31 12:43:43;;;;;;;2.38;1.30;;;19.50;99.90;;;;;;6158971;23;20048;-77
2023/07/31 12:46:09;;;;;;;4.03;1.60;;;19.50;99.90;;;;;;6158972;23;20060;-76